createdAt,value
2019-03-22T00:01:52.555Z,10.58
2019-03-22T00:04:44.073Z,9.78
2019-03-22T00:07:29.557Z,10.25
2019-03-22T00:10:22.196Z,9.68
2019-03-22T00:13:05.777Z,10.55
2019-03-22T00:15:57.340Z,11.08
2019-03-22T00:18:41.496Z,11.22
2019-03-22T00:21:33.262Z,12.25
2019-03-22T00:24:18.828Z,11.70
2019-03-22T00:27:03.248Z,11.73
2019-03-22T00:29:54.973Z,10.30
2019-03-22T00:32:40.198Z,10.85
2019-03-22T00:35:31.887Z,10.38
2019-03-22T00:38:16.036Z,9.78
2019-03-22T00:41:00.438Z,8.98
2019-03-22T00:43:51.964Z,9.68
2019-03-22T00:46:24.883Z,9.78
2019-03-22T00:49:16.591Z,8.40
2019-03-22T00:52:00.993Z,9.73
2019-03-22T00:54:52.617Z,9.40
2019-03-22T00:57:37.102Z,10.00
2019-03-22T01:00:29.063Z,9.70
2019-03-22T01:03:14.362Z,10.28
2019-03-22T01:06:06.111Z,9.30
2019-03-22T01:08:50.646Z,8.95
2019-03-22T01:11:42.469Z,10.40
2019-03-22T01:14:27.831Z,10.90
2019-03-22T01:17:11.395Z,10.93
2019-03-22T01:20:03.091Z,11.33
2019-03-22T01:22:47.475Z,10.82
2019-03-22T01:25:39.210Z,10.93
2019-03-22T01:28:23.462Z,11.08
2019-03-22T01:31:07.975Z,10.30
2019-03-22T01:33:59.723Z,9.68
2019-03-22T01:36:43.633Z,11.22
2019-03-22T01:39:27.442Z,10.08
2019-03-22T01:42:19.129Z,9.93
2019-03-22T01:45:02.646Z,11.30
2019-03-22T01:47:46.542Z,9.28
2019-03-22T01:50:38.312Z,10.32
2019-03-22T01:53:22.429Z,9.20
2019-03-22T01:55:55.352Z,10.10
2019-03-22T01:58:46.988Z,9.58
2019-03-22T02:01:19.823Z,10.65
2019-03-22T02:03:52.496Z,9.30
2019-03-22T02:06:37.884Z,10.53
2019-03-22T02:09:29.602Z,10.50
2019-03-22T02:12:13.241Z,9.95
2019-03-22T02:18:28.126Z,9.43
2019-03-22T02:21:12.239Z,9.20
2019-03-22T02:23:56.423Z,8.20
2019-03-22T02:26:40.893Z,10.00
2019-03-22T02:29:26.222Z,10.03
2019-03-22T02:32:17.708Z,9.30
2019-03-22T02:35:01.414Z,10.00
2019-03-22T02:37:53.129Z,8.75
2019-03-22T02:40:37.599Z,11.12
2019-03-22T02:43:22.230Z,9.65
2019-03-22T02:46:13.835Z,9.65
2019-03-22T02:48:57.999Z,9.35
2019-03-22T02:51:49.621Z,9.70
2019-03-22T02:54:34.878Z,9.40
2019-03-22T02:57:26.587Z,9.58
2019-03-22T03:00:11.310Z,9.90
2019-03-22T03:03:03.094Z,8.48
2019-03-22T03:05:35.931Z,8.98
2019-03-22T03:08:27.515Z,8.73
2019-03-22T03:11:13.025Z,8.95
2019-03-22T03:14:04.694Z,8.78
2019-03-22T03:16:48.796Z,9.85
2019-03-22T03:19:40.330Z,9.85
2019-03-22T03:22:24.131Z,9.70
2019-03-22T03:25:16.085Z,10.00
2019-03-22T03:28:00.025Z,8.75
2019-03-22T03:33:42.002Z,9.23
2019-03-22T03:36:26.105Z,10.25
2019-03-22T03:39:17.818Z,10.10
2019-03-22T03:41:50.653Z,9.60
2019-03-22T03:44:35.201Z,8.65
2019-03-22T03:47:26.778Z,9.25
2019-03-22T03:50:11.158Z,9.13
2019-03-22T03:53:02.992Z,9.53
2019-03-22T03:55:47.291Z,8.60
2019-03-22T03:58:51.639Z,9.00
2019-03-22T04:01:43.323Z,9.10
2019-03-22T04:04:16.192Z,9.50
2019-03-22T04:07:00.541Z,8.90
2019-03-22T04:09:52.465Z,8.58
2019-03-22T04:12:36.723Z,8.05
2019-03-22T04:15:28.261Z,8.60
2019-03-22T04:18:12.042Z,9.53
2019-03-22T04:21:02.938Z,9.73
2019-03-22T04:23:47.573Z,9.40
2019-03-22T04:26:39.157Z,8.68
2019-03-22T04:29:24.253Z,9.48
2019-03-22T04:32:15.947Z,8.40
2019-03-22T04:35:00.088Z,9.93
2019-03-22T04:37:51.873Z,10.00
2019-03-22T04:40:35.643Z,9.10
2019-03-22T04:43:19.499Z,8.75
2019-03-22T04:46:31.760Z,9.70
2019-03-22T04:49:16.171Z,9.23
2019-03-22T04:59:19.229Z,10.32
2019-03-22T05:02:23.457Z,8.90
2019-03-22T05:04:56.581Z,9.33
2019-03-22T05:07:42.761Z,8.90
2019-03-22T05:10:26.912Z,9.33
2019-03-22T05:13:11.877Z,10.00
2019-03-22T05:16:04.013Z,9.78
2019-03-22T05:18:48.820Z,9.58
2019-03-22T05:21:40.764Z,8.85
2019-03-22T05:24:24.632Z,9.85
2019-03-22T05:27:00.178Z,9.80
2019-03-22T05:29:35.893Z,9.55
2019-03-22T05:32:27.511Z,9.93
2019-03-22T05:35:12.799Z,9.48
2019-03-22T05:38:04.697Z,9.55
2019-03-22T05:40:54.870Z,9.53
2019-03-22T05:43:27.691Z,10.82
2019-03-22T05:46:00.571Z,10.65
2019-03-22T05:48:45.534Z,9.25
2019-03-22T05:51:18.337Z,9.93
2019-03-22T05:53:51.135Z,9.85
2019-03-22T05:56:38.948Z,10.32
2019-03-22T05:59:11.721Z,10.00
2019-03-22T06:01:45.453Z,11.63
2019-03-22T06:04:56.794Z,11.03
2019-03-22T06:07:40.667Z,10.30
2019-03-22T06:10:13.501Z,10.20
2019-03-22T06:12:46.277Z,9.98
2019-03-22T06:15:19.317Z,9.75
2019-03-22T06:17:52.195Z,10.80
2019-03-22T06:20:24.780Z,10.13
2019-03-22T06:22:57.734Z,11.80
2019-03-22T06:25:30.504Z,10.88
2019-03-22T06:28:03.368Z,10.60
2019-03-22T06:30:36.139Z,9.65
2019-03-22T06:33:08.808Z,14.95
2019-03-22T06:35:41.499Z,11.78
2019-03-22T06:38:14.315Z,11.95
2019-03-22T06:40:59.186Z,11.83
2019-03-22T06:43:31.966Z,12.15
2019-03-22T06:46:04.801Z,11.75
2019-03-22T06:48:56.394Z,11.88
2019-03-22T06:51:29.154Z,12.95
2019-03-22T06:54:31.057Z,12.90
2019-03-22T06:57:14.331Z,13.13
2019-03-22T06:59:46.993Z,14.20
2019-03-22T07:02:31.709Z,13.35
2019-03-22T07:05:04.763Z,14.55
2019-03-22T07:07:37.582Z,14.93
2019-03-22T07:10:29.323Z,13.62
2019-03-22T07:13:02.058Z,12.90
2019-03-22T07:15:53.860Z,14.15
2019-03-22T07:18:42.248Z,15.55
2019-03-22T07:21:34.223Z,13.90
2019-03-22T07:24:18.835Z,11.85
2019-03-22T07:27:10.538Z,13.15
2019-03-22T07:29:55.923Z,14.70
2019-03-22T07:32:48.183Z,14.18
2019-03-22T07:35:40.954Z,14.33
2019-03-22T07:38:32.659Z,14.40
2019-03-22T07:41:17.744Z,13.65
2019-03-22T07:44:00.381Z,13.25
2019-03-22T07:46:52.152Z,13.75
2019-03-22T07:49:36.172Z,12.95
2019-03-22T07:52:21.367Z,14.15
2019-03-22T07:55:13.145Z,14.70
2019-03-22T07:57:57.823Z,14.87
2019-03-22T08:00:49.339Z,14.33
2019-03-22T08:03:30.958Z,13.95
2019-03-22T08:06:22.511Z,12.53
2019-03-22T08:09:08.968Z,14.75
2019-03-22T08:15:26.561Z,14.40
2019-03-22T08:18:12.166Z,13.05
2019-03-22T08:20:56.553Z,13.20
2019-03-22T08:23:48.328Z,14.00
2019-03-22T08:26:37.284Z,14.63
2019-03-22T08:29:30.630Z,15.50
2019-03-22T08:32:15.034Z,13.72
2019-03-22T08:35:06.699Z,13.78
2019-03-22T08:37:52.732Z,13.45
2019-03-22T08:40:43.647Z,12.45
2019-03-22T08:43:27.940Z,14.85
2019-03-22T08:46:19.537Z,13.40
2019-03-22T08:49:04.879Z,12.75
2019-03-22T08:51:57.498Z,12.60
2019-03-22T08:54:42.574Z,13.85
2019-03-22T08:57:34.227Z,13.38
2019-03-22T09:00:18.574Z,13.50
2019-03-22T09:03:02.723Z,12.90
2019-03-22T09:05:54.269Z,12.95
2019-03-22T09:08:38.067Z,13.65
2019-03-22T09:11:29.662Z,13.60
2019-03-22T09:14:13.722Z,13.83
2019-03-22T09:16:57.630Z,14.33
2019-03-22T09:19:42.036Z,13.85
2019-03-22T09:22:33.786Z,15.15
2019-03-22T09:25:17.957Z,14.50
2019-03-22T09:28:10.483Z,14.83
2019-03-22T09:31:14.083Z,14.23
2019-03-22T09:34:06.905Z,15.20
2019-03-22T09:36:50.520Z,15.38
2019-03-22T09:39:42.222Z,14.80
2019-03-22T09:42:25.964Z,13.15
2019-03-22T09:45:17.756Z,13.53
2019-03-22T09:48:00.732Z,14.10
2019-03-22T09:50:34.569Z,15.23
2019-03-22T09:53:19.810Z,15.30
2019-03-22T09:55:52.683Z,15.15
2019-03-22T09:58:38.199Z,13.83
2019-03-22T10:01:29.975Z,13.78
2019-03-22T10:04:14.071Z,15.55
2019-03-22T10:07:05.994Z,14.78
2019-03-22T10:09:50.585Z,14.45
2019-03-22T10:12:42.332Z,15.68
2019-03-22T10:15:29.849Z,16.17
2019-03-22T10:18:22.118Z,15.28
2019-03-22T10:21:05.886Z,15.75
2019-03-22T10:23:58.027Z,14.70
2019-03-22T10:26:42.227Z,14.63
2019-03-22T10:29:26.617Z,15.65
2019-03-22T10:32:18.342Z,14.58
2019-03-22T10:35:02.760Z,14.85
2019-03-22T10:37:46.596Z,15.13
2019-03-22T10:40:38.363Z,14.05
2019-03-22T10:43:22.402Z,13.55
2019-03-22T10:46:14.214Z,13.70
2019-03-22T10:48:59.177Z,15.72
2019-03-22T10:51:32.117Z,13.53
2019-03-22T10:54:23.644Z,14.50
2019-03-22T10:57:07.988Z,13.83
2019-03-22T10:59:59.696Z,12.78
2019-03-22T11:02:44.006Z,12.90
2019-03-22T11:05:36.707Z,13.40
2019-03-22T11:08:20.587Z,13.75
2019-03-22T11:11:12.398Z,13.18
2019-03-22T11:13:56.571Z,11.70
2019-03-22T11:16:48.347Z,11.70
2019-03-22T11:19:32.935Z,12.50
2019-03-22T11:22:24.544Z,11.22
2019-03-22T11:25:12.550Z,12.95
2019-03-22T11:27:56.487Z,12.40
2019-03-22T11:30:29.402Z,13.28
2019-03-22T11:33:20.962Z,12.63
2019-03-22T11:36:04.873Z,12.73
2019-03-22T11:38:49.178Z,12.00
2019-03-22T11:41:40.889Z,10.40
2019-03-22T11:44:26.315Z,10.75
2019-03-22T11:47:18.057Z,10.48
2019-03-22T11:49:50.943Z,10.60
2019-03-22T11:52:23.945Z,13.70
2019-03-22T11:55:08.499Z,12.07
2019-03-22T11:58:00.225Z,12.70
2019-03-22T12:00:44.207Z,13.65
2019-03-22T12:03:35.869Z,13.48
2019-03-22T12:06:19.695Z,13.93
2019-03-22T12:09:11.498Z,12.45
2019-03-22T12:11:55.674Z,12.15
2019-03-22T12:14:40.357Z,12.65
2019-03-22T12:17:32.474Z,12.00
2019-03-22T12:20:24.240Z,11.50
2019-03-22T12:23:08.420Z,11.80
2019-03-22T12:26:00.204Z,12.80
2019-03-22T12:28:44.013Z,14.47
2019-03-22T12:31:28.096Z,12.23
2019-03-22T12:34:19.808Z,11.60
2019-03-22T12:37:03.500Z,11.53
2019-03-22T12:39:55.155Z,11.75
2019-03-22T12:42:38.912Z,10.80
2019-03-22T12:45:23.155Z,11.50
2019-03-22T12:48:14.866Z,11.75
2019-03-22T12:50:57.662Z,10.15
2019-03-22T12:53:41.818Z,10.78
2019-03-22T12:59:36.807Z,10.08
2019-03-22T13:02:28.578Z,9.70
2019-03-22T13:05:12.384Z,10.50
2019-03-22T13:08:04.039Z,9.43
2019-03-22T13:10:48.496Z,9.70
2019-03-22T13:13:40.155Z,10.00
2019-03-22T13:16:24.440Z,9.65
2019-03-22T13:19:16.138Z,8.73
2019-03-22T13:28:10.344Z,9.43
2019-03-22T13:31:03.679Z,8.90
2019-03-22T13:33:36.874Z,9.08
2019-03-22T13:36:09.848Z,8.98
2019-03-22T13:38:43.102Z,9.00
2019-03-22T13:41:15.891Z,9.00
2019-03-22T13:44:00.513Z,9.05
2019-03-22T13:46:52.042Z,8.78
2019-03-22T13:49:37.393Z,8.28
2019-03-22T13:52:10.295Z,9.30
2019-03-22T13:54:54.797Z,7.33
2019-03-22T13:57:46.511Z,8.70
2019-03-22T14:00:30.830Z,7.62
2019-03-22T14:03:22.627Z,7.00
2019-03-22T14:06:06.190Z,7.17
2019-03-22T14:08:58.139Z,7.00
2019-03-22T14:11:41.833Z,6.80
2019-03-22T14:14:33.758Z,8.10
2019-03-22T14:17:18.055Z,9.03
2019-03-22T14:20:20.621Z,8.55
2019-03-22T14:23:14.327Z,8.58
2019-03-22T14:25:58.989Z,8.60
2019-03-22T14:28:47.955Z,9.55
2019-03-22T14:31:31.775Z,7.10
2019-03-22T14:34:27.650Z,8.50
2019-03-22T14:37:13.930Z,8.18
2019-03-22T14:40:05.952Z,7.55
2019-03-22T14:42:51.743Z,8.40
2019-03-22T14:45:43.381Z,7.67
2019-03-22T14:48:27.247Z,9.25
2019-03-22T14:51:18.831Z,8.75
2019-03-22T14:53:51.732Z,8.70
2019-03-22T14:56:43.758Z,9.03
2019-03-22T14:59:27.384Z,8.53
2019-03-22T15:02:19.016Z,9.53
2019-03-22T15:05:03.304Z,10.93
2019-03-22T15:07:54.947Z,11.15
2019-03-22T15:10:43.281Z,10.40
2019-03-22T15:13:53.798Z,10.18
2019-03-22T15:16:59.845Z,10.58
2019-03-22T15:19:54.765Z,10.40
2019-03-22T15:23:03.166Z,9.60
2019-03-22T15:26:13.714Z,8.00
2019-03-22T15:29:16.780Z,7.37
2019-03-22T15:32:27.257Z,8.13
2019-03-22T15:38:35.171Z,8.30
2019-03-22T15:41:17.982Z,8.08
2019-03-22T15:44:09.634Z,8.90
2019-03-22T15:46:54.053Z,9.53
2019-03-22T15:49:45.856Z,8.88
2019-03-22T15:52:30.234Z,9.63
2019-03-22T15:55:02.924Z,8.75
2019-03-22T15:57:47.059Z,7.40
2019-03-22T16:00:31.623Z,7.47
2019-03-22T16:03:23.299Z,7.33
2019-03-22T16:06:07.297Z,7.50
2019-03-22T16:08:58.997Z,7.78
2019-03-22T16:11:32.582Z,7.37
2019-03-22T16:14:24.408Z,6.42
2019-03-22T16:17:07.982Z,9.68
2019-03-22T16:19:52.062Z,7.95
2019-03-22T16:22:44.772Z,8.23
2019-03-22T16:25:29.858Z,8.03
2019-03-22T16:28:21.581Z,9.73
2019-03-22T16:31:05.384Z,9.95
2019-03-22T16:33:56.995Z,11.53
2019-03-22T16:36:40.757Z,11.05
2019-03-22T16:39:32.385Z,9.35
2019-03-22T16:42:16.639Z,10.75
2019-03-22T16:45:09.069Z,12.40
2019-03-22T16:47:53.408Z,11.40
2019-03-22T16:50:45.015Z,11.83
2019-03-22T16:53:30.422Z,12.73
2019-03-22T16:56:03.245Z,11.65
2019-03-22T16:58:47.408Z,11.12
2019-03-22T17:01:39.483Z,12.15
2019-03-22T17:04:23.826Z,10.93
2019-03-22T17:07:15.640Z,12.37
2019-03-22T17:09:59.802Z,12.30
2019-03-22T17:12:43.870Z,12.15
2019-03-22T17:15:35.624Z,12.98
2019-03-22T17:18:19.993Z,13.68
2019-03-22T17:21:03.989Z,13.28
2019-03-22T17:23:55.744Z,12.70
2019-03-22T17:26:40.687Z,14.43
2019-03-22T17:29:24.409Z,15.65
2019-03-22T17:32:16.123Z,16.82
2019-03-22T17:34:59.826Z,13.75
2019-03-22T17:37:43.746Z,12.35
2019-03-22T17:40:54.417Z,13.00
2019-03-22T17:43:39.951Z,14.30
2019-03-22T17:46:23.625Z,14.15
2019-03-22T17:49:08.254Z,14.03
2019-03-22T17:51:59.894Z,13.18
2019-03-22T17:54:44.069Z,12.90
2019-03-22T17:57:35.664Z,14.65
2019-03-22T18:00:22.405Z,15.10
2019-03-22T18:03:14.138Z,14.65
2019-03-22T18:06:00.227Z,14.87
2019-03-22T18:08:52.176Z,15.45
2019-03-22T18:11:37.887Z,15.80
2019-03-22T18:14:21.870Z,14.45
2019-03-22T18:17:14.723Z,26.00
2019-03-22T18:19:58.711Z,18.70
2019-03-22T18:22:43.132Z,19.17
2019-03-22T18:25:34.952Z,15.58
2019-03-22T18:28:20.694Z,15.68
2019-03-22T18:31:28.089Z,17.25
2019-03-22T18:34:34.300Z,15.72
2019-03-22T18:37:17.576Z,15.00
2019-03-22T18:40:02.291Z,15.23
2019-03-22T18:42:53.903Z,16.82
2019-03-22T18:45:40.819Z,15.80
2019-03-22T18:48:44.928Z,15.98
2019-03-22T18:51:37.713Z,17.15
2019-03-22T18:54:33.171Z,15.83
2019-03-22T18:57:21.452Z,17.12
2019-03-22T19:00:15.284Z,17.85
2019-03-22T19:03:01.981Z,17.87
2019-03-22T19:05:53.641Z,15.78
2019-03-22T19:08:59.960Z,17.10
2019-03-22T19:11:53.548Z,15.48
2019-03-22T19:14:41.278Z,16.87
2019-03-22T19:17:34.602Z,18.70
2019-03-22T19:20:25.144Z,20.52
2019-03-22T19:23:16.898Z,19.50
2019-03-22T19:26:02.893Z,17.55
2019-03-22T19:31:50.004Z,16.73
2019-03-22T19:34:36.469Z,18.52
2019-03-22T19:37:25.643Z,15.03
2019-03-22T19:40:15.428Z,17.37
2019-03-22T19:43:02.465Z,16.95
2019-03-22T19:48:58.497Z,18.65
2019-03-22T19:54:54.719Z,17.55
2019-03-22T19:57:43.000Z,17.87
2019-03-22T20:03:38.063Z,17.17
2019-03-22T20:06:29.746Z,18.37
2019-03-22T20:09:14.263Z,16.52
2019-03-22T20:12:05.962Z,17.70
2019-03-22T20:14:50.099Z,18.50
2019-03-22T20:17:41.928Z,17.67
2019-03-22T20:20:27.399Z,16.52
2019-03-22T20:23:19.217Z,18.15
2019-03-22T20:26:04.211Z,18.45
2019-03-22T20:28:50.124Z,16.95
2019-03-22T20:31:34.368Z,17.25
2019-03-22T20:34:26.210Z,19.12
2019-03-22T20:37:10.732Z,20.10
2019-03-22T20:39:55.053Z,17.75
2019-03-22T20:42:46.823Z,17.23
2019-03-22T20:45:32.675Z,19.57
2019-03-22T20:48:24.216Z,19.15
2019-03-22T20:50:57.021Z,19.00
2019-03-22T20:53:29.869Z,18.62
2019-03-22T20:56:02.624Z,19.05
2019-03-22T20:58:35.332Z,18.62
2019-03-22T21:01:20.865Z,19.52
2019-03-22T21:04:12.512Z,19.30
2019-03-22T21:06:56.936Z,19.92
2019-03-22T21:09:29.989Z,19.00
2019-03-22T21:12:03.951Z,18.95
2019-03-22T21:14:36.797Z,20.32
2019-03-22T21:17:21.197Z,20.77
2019-03-22T21:23:58.080Z,19.70
2019-03-22T21:26:46.562Z,19.62
2019-03-22T21:30:00.644Z,20.90
2019-03-22T21:32:52.458Z,20.20
2019-03-22T21:35:39.529Z,19.55
2019-03-22T21:38:23.267Z,19.92
2019-03-22T21:40:56.389Z,18.75
2019-03-22T21:43:48.262Z,18.50
2019-03-22T21:46:35.591Z,20.88
2019-03-22T21:49:27.299Z,20.40
2019-03-22T21:52:12.449Z,18.25
2019-03-22T21:55:04.170Z,18.70
2019-03-22T21:57:47.845Z,19.60
2019-03-22T22:00:39.571Z,19.92
2019-03-22T22:03:23.304Z,19.20
2019-03-22T22:06:14.967Z,22.00
2019-03-22T22:08:59.276Z,20.17
2019-03-22T22:11:50.902Z,18.77
2019-03-22T22:14:40.709Z,19.45
2019-03-22T22:17:28.877Z,19.35
2019-03-22T22:20:12.721Z,20.08
2019-03-22T22:23:04.816Z,18.50
2019-03-22T22:25:50.035Z,19.37
2019-03-22T22:28:34.008Z,21.15
2019-03-22T22:31:18.239Z,18.67
2019-03-22T22:34:02.712Z,18.02
2019-03-22T22:36:47.001Z,18.32
2019-03-22T22:39:38.624Z,18.27
2019-03-22T22:42:11.588Z,21.00
2019-03-22T22:44:56.809Z,17.80
2019-03-22T22:47:29.621Z,18.12
2019-03-22T22:50:14.305Z,19.57
2019-03-22T22:53:06.170Z,17.70
2019-03-22T22:55:50.179Z,19.12
2019-03-22T22:58:34.958Z,19.20
2019-03-22T23:01:26.633Z,19.05
2019-03-22T23:04:11.892Z,18.80
2019-03-22T23:07:03.760Z,20.40
2019-03-22T23:09:48.244Z,19.07
2019-03-22T23:12:39.853Z,20.02
2019-03-22T23:15:24.334Z,18.77
2019-03-22T23:18:16.067Z,19.12
2019-03-22T23:20:49.092Z,18.92
2019-03-22T23:23:41.052Z,20.27
2019-03-22T23:26:24.584Z,19.10
2019-03-22T23:29:09.845Z,18.85
2019-03-22T23:32:01.832Z,18.52
2019-03-22T23:34:46.458Z,18.77
2019-03-22T23:37:38.145Z,19.07
2019-03-22T23:40:23.070Z,19.25
2019-03-22T23:42:55.924Z,18.42
2019-03-22T23:45:28.875Z,17.73
2019-03-22T23:48:21.456Z,19.20
2019-03-22T23:51:05.258Z,17.82
2019-03-22T23:53:57.022Z,17.85
2019-03-22T23:56:41.605Z,18.95
2019-03-22T23:59:33.147Z,18.02
